Time;durP1;ratioP1;P1;durP2;ratioP2;P2;SDS_P1;SDS_P2;PMS_P1;PMS_P2;Temp;Humidity;BMP_temperature;BMP_pressure;BME280_temperature;BME280_humidity;BME280_pressure;Samples;Min_cycle;Max_cycle;Signal;HPM_P1;HPM_P2
2024/01/31 00:01:39;;;;;;;25.90;12.93;;;3.20;99.90;;;;;;5077157;28;20023;-52
2024/01/31 00:04:05;;;;;;;26.50;11.50;;;3.20;99.90;;;;;;5062572;28;20039;-51
2024/01/31 00:06:31;;;;;;;23.13;11.65;;;3.20;99.90;;;;;;5082482;28;20038;-54
2024/01/31 00:08:57;;;;;;;24.92;12.98;;;3.10;99.90;;;;;;5084130;28;20807;-50
2024/01/31 00:11:25;;;;;;;29.25;12.25;;;3.10;99.90;;;;;;5076686;28;20047;-51
2024/01/31 00:13:51;;;;;;;25.55;12.75;;;3.10;99.90;;;;;;5082574;28;20114;-51
2024/01/31 00:16:17;;;;;;;26.38;12.80;;;3.00;99.90;;;;;;5083465;28;20028;-50
2024/01/31 00:18:43;;;;;;;25.38;13.70;;;3.00;99.90;;;;;;5082066;28;20061;-50
2024/01/31 00:21:09;;;;;;;24.77;13.05;;;3.00;99.90;;;;;;5076185;28;20122;-51
2024/01/31 00:23:36;;;;;;;30.17;13.85;;;2.90;99.90;;;;;;5049191;28;20126;-51
2024/01/31 00:26:02;;;;;;;26.75;13.50;;;2.90;99.90;;;;;;5063293;28;20480;-51
2024/01/31 00:28:28;;;;;;;24.37;12.80;;;2.90;99.90;;;;;;5083942;28;20093;-50
2024/01/31 00:30:53;;;;;;;26.00;13.38;;;2.90;99.90;;;;;;5076758;28;20027;-51
2024/01/31 20:03:56;;;;;;;109.50;49.63;;;2.80;99.90;;;;;;5044022;28;20435;-50
2024/01/31 20:06:25;;;;;;;126.38;56.55;;;2.80;99.90;;;;;;5046229;28;21629;-52
2024/01/31 20:08:52;;;;;;;119.05;56.20;;;2.80;99.90;;;;;;5046177;28;20055;-51
2024/01/31 20:11:18;;;;;;;112.88;54.47;;;2.80;99.90;;;;;;5043142;28;20029;-51
2024/01/31 20:13:45;;;;;;;112.00;54.35;;;2.80;99.90;;;;;;5045064;28;20036;-51
2024/01/31 20:16:15;;;;;;;119.78;57.65;;;2.80;99.90;;;;;;5045742;28;20056;-52
2024/01/31 20:18:44;;;;;;;115.53;56.45;;;2.80;99.90;;;;;;5046374;28;20041;-53
2024/01/31 20:21:13;;;;;;;111.07;55.08;;;2.80;99.90;;;;;;5041568;28;21159;-52
2024/01/31 20:23:38;;;;;;;104.95;51.72;;;2.80;99.90;;;;;;5045469;28;20036;-53
2024/01/31 20:26:04;;;;;;;101.05;51.30;;;2.70;99.90;;;;;;5045650;28;20029;-49
2024/01/31 20:28:31;;;;;;;105.90;54.80;;;2.70;99.90;;;;;;5046014;28;20838;-52
2024/01/31 20:30:58;;;;;;;106.70;52.33;;;2.70;99.90;;;;;;5043172;28;20025;-50
2024/01/31 20:33:26;;;;;;;105.00;53.13;;;2.70;99.90;;;;;;5045308;28;20033;-51
2024/01/31 20:35:51;;;;;;;101.45;53.00;;;2.70;99.90;;;;;;5045429;28;20037;-51
2024/01/31 20:38:17;;;;;;;113.57;54.28;;;2.70;99.90;;;;;;5046127;28;20626;-52
2024/01/31 20:40:43;;;;;;;114.38;55.25;;;2.70;99.90;;;;;;5042878;28;20855;-51
2024/01/31 20:43:08;;;;;;;105.93;54.42;;;2.70;99.90;;;;;;5045063;28;20076;-51
2024/01/31 20:45:34;;;;;;;102.93;50.28;;;2.70;99.90;;;;;;5045787;28;20033;-52
2024/01/31 20:48:04;;;;;;;107.07;53.63;;;2.70;99.90;;;;;;5044931;28;20143;-52
2024/01/31 20:50:32;;;;;;;99.57;51.38;;;2.70;99.90;;;;;;5044476;28;20029;-51
2024/01/31 20:52:58;;;;;;;103.65;51.35;;;2.70;99.90;;;;;;5046786;28;20581;-52
2024/01/31 20:55:24;;;;;;;107.32;51.10;;;2.70;99.90;;;;;;5047190;28;20132;-51
2024/01/31 20:57:49;;;;;;;107.93;52.22;;;2.70;99.90;;;;;;5045902;28;20032;-50
2024/01/31 21:00:16;;;;;;;97.13;50.33;;;2.70;99.90;;;;;;5044978;28;20726;-52
2024/01/31 21:02:42;;;;;;;116.30;55.28;;;2.70;99.90;;;;;;5041817;28;20057;-52
2024/01/31 21:05:09;;;;;;;116.20;52.17;;;2.70;99.90;;;;;;5043665;28;20028;-54
2024/01/31 21:07:41;;;;;;;107.72;51.67;;;2.70;99.90;;;;;;5045316;28;20024;-50
2024/01/31 21:10:13;;;;;;;101.82;50.90;;;2.70;99.90;;;;;;5045058;28;20150;-51
2024/01/31 21:12:40;;;;;;;96.20;50.17;;;2.70;99.90;;;;;;5043861;28;20348;-50
2024/01/31 21:15:07;;;;;;;;;;;2.80;99.90;;;;;;5034437;28;20048;-50
2024/01/31 21:17:33;;;;;;;104.13;49.42;;;2.80;99.90;;;;;;5032200;28;19963;-53
2024/01/31 21:20:00;;;;;;;95.20;47.47;;;2.80;99.90;;;;;;5032002;28;20028;-52
2024/01/31 21:22:26;;;;;;;100.70;48.95;;;2.80;99.90;;;;;;5029940;28;20523;-51
2024/01/31 21:24:52;;;;;;;102.32;48.90;;;2.80;99.90;;;;;;5031870;28;20045;-50
2024/01/31 21:27:18;;;;;;;92.05;46.35;;;2.80;99.90;;;;;;5032394;28;20033;-50
2024/01/31 21:29:44;;;;;;;91.40;45.83;;;2.80;99.90;;;;;;5030640;28;20740;-51
2024/01/31 21:32:10;;;;;;;91.85;46.08;;;2.80;99.90;;;;;;5029657;28;20049;-52
2024/01/31 21:34:36;;;;;;;86.35;43.78;;;2.80;99.90;;;;;;5030364;28;20021;-53
2024/01/31 21:37:02;;;;;;;90.28;47.38;;;2.90;99.90;;;;;;5031155;28;20029;-51
2024/01/31 21:39:27;;;;;;;87.45;44.83;;;2.90;99.90;;;;;;5031008;28;20041;-49
2024/01/31 21:41:53;;;;;;;88.95;48.15;;;2.90;99.90;;;;;;5028671;28;20045;-52
2024/01/31 21:44:20;;;;;;;86.82;47.38;;;2.90;99.90;;;;;;5031509;28;20057;-50
2024/01/31 21:46:46;;;;;;;107.28;50.92;;;2.90;99.90;;;;;;5031679;28;20914;-53
2024/01/31 21:49:13;;;;;;;103.50;50.72;;;2.90;99.90;;;;;;5032059;28;20060;-50
2024/01/31 21:51:40;;;;;;;111.38;54.63;;;2.90;99.90;;;;;;5028951;28;20724;-52
2024/01/31 21:54:06;;;;;;;;;;;3.00;99.90;;;;;;5031240;28;20033;-52
2024/01/31 21:56:31;;;;;;;114.28;55.20;;;3.00;99.90;;;;;;5031469;28;19917;-51
2024/01/31 21:58:57;;;;;;;124.93;59.83;;;3.00;99.90;;;;;;5031391;28;20024;-51
2024/01/31 22:01:23;;;;;;;124.53;58.72;;;3.00;99.90;;;;;;5028620;28;20522;-51
2024/01/31 22:03:49;;;;;;;125.22;60.10;;;3.00;99.90;;;;;;5029742;28;22612;-50
2024/01/31 22:06:14;;;;;;;110.28;55.28;;;3.00;99.90;;;;;;5031430;28;20542;-51
2024/01/31 22:08:40;;;;;;;104.38;52.40;;;3.00;99.90;;;;;;5031548;28;20479;-52
2024/01/31 22:11:08;;;;;;;110.13;52.05;;;3.00;99.90;;;;;;5028606;28;20029;-51
2024/01/31 22:13:33;;;;;;;112.22;54.40;;;3.10;99.90;;;;;;5030873;28;20051;-53
2024/01/31 22:15:59;;;;;;;107.40;50.60;;;3.00;99.90;;;;;;5031751;28;20029;-52
2024/01/31 22:18:25;;;;;;;97.25;49.42;;;3.10;99.90;;;;;;5030995;28;20033;-50
